createdAt,value
2022-09-25T00:01:38.609Z,9.44
2022-09-25T00:16:40.220Z,8.95
2022-09-25T00:31:42.006Z,9.88
2022-09-25T00:46:44.489Z,9.87
2022-09-25T01:01:46.625Z,9.16
2022-09-25T01:16:56.137Z,8.18
2022-09-25T01:32:03.950Z,9.07
2022-09-25T01:47:18.767Z,9.05
2022-09-25T02:02:22.659Z,8.35
2022-09-25T02:17:48.548Z,8.57
2022-09-25T02:32:50.012Z,8.44
2022-09-25T02:47:51.443Z,7.85
2022-09-25T03:02:55.044Z,9.49
2022-09-25T03:17:58.158Z,8.25
2022-09-25T03:32:59.637Z,8.88
2022-09-25T03:48:01.243Z,9.66
2022-09-25T04:03:02.721Z,8.22
2022-09-25T04:18:06.249Z,8.89
2022-09-25T04:33:27.585Z,10.26
2022-09-25T04:48:29.246Z,9.76
2022-09-25T05:03:30.829Z,12.38
2022-09-25T05:18:32.376Z,14.52
2022-09-25T05:33:34.566Z,16.14
2022-09-25T05:48:36.485Z,15.12
2022-09-25T06:03:37.964Z,14.69
2022-09-25T06:18:39.417Z,16.09
2022-09-25T06:33:41.074Z,16.54
2022-09-25T06:48:43.370Z,15.19
2022-09-25T07:03:44.820Z,16.93
2022-09-25T07:18:46.745Z,19.16
2022-09-25T07:33:48.552Z,18.49
2022-09-25T07:48:50.423Z,19.56
2022-09-25T08:03:51.886Z,19.75
2022-09-25T08:18:53.434Z,19.28
2022-09-25T08:33:54.917Z,19.57
2022-09-25T08:49:03.686Z,18.42
2022-09-25T09:04:11.107Z,19.95
2022-09-25T09:19:13.115Z,20.50
2022-09-25T09:34:46.545Z,20.20
2022-09-25T09:50:06.860Z,20.74
2022-09-25T10:05:12.185Z,21.89
2022-09-25T10:20:20.827Z,19.78
2022-09-25T10:35:24.508Z,20.82
2022-09-25T10:50:30.631Z,24.40
2022-09-25T11:05:33.924Z,22.05
2022-09-25T11:20:36.784Z,23.29
2022-09-25T11:36:00.044Z,22.59
2022-09-25T11:51:07.387Z,22.84
2022-09-25T12:06:20.049Z,23.01
2022-09-25T12:21:34.063Z,23.66
2022-09-25T12:36:38.109Z,23.21
2022-09-25T12:51:40.458Z,22.85
2022-09-25T13:06:51.495Z,22.80
2022-09-25T13:21:59.490Z,23.13
2022-09-25T13:37:04.106Z,23.07
2022-09-25T13:52:25.490Z,22.79
2022-09-25T14:07:29.552Z,22.93
2022-09-25T14:22:34.105Z,23.99
2022-09-25T14:37:39.532Z,23.32
2022-09-25T14:52:42.555Z,22.33
2022-09-25T15:07:45.010Z,21.07
2022-09-25T15:22:57.042Z,21.00
2022-09-25T15:38:10.619Z,19.67
2022-09-25T15:53:20.798Z,17.74
2022-09-25T16:08:25.096Z,18.49
2022-09-25T16:23:30.029Z,16.93
2022-09-25T16:38:41.421Z,17.17
2022-09-25T16:53:42.861Z,18.15
2022-09-25T17:08:44.309Z,18.57
2022-09-25T17:23:46.283Z,18.81
2022-09-25T17:38:47.842Z,19.11
2022-09-25T17:53:49.393Z,18.84
2022-09-25T18:08:51.380Z,18.76
2022-09-25T18:23:52.838Z,18.20
2022-09-25T18:38:54.341Z,17.40
2022-09-25T18:53:56.048Z,16.77
2022-09-25T19:08:58.187Z,14.97
2022-09-25T19:23:59.739Z,14.70
2022-09-25T19:39:01.865Z,14.29
2022-09-25T19:54:03.967Z,13.95
2022-09-25T20:09:05.890Z,14.30
2022-09-25T20:24:08.094Z,14.63
2022-09-25T20:39:09.754Z,15.08
2022-09-25T20:54:11.487Z,14.56
2022-09-25T21:09:23.342Z,15.03
2022-09-25T21:24:24.842Z,13.02
2022-09-25T21:39:26.291Z,12.48
2022-09-25T21:54:28.386Z,12.58
2022-09-25T22:16:16.138Z,12.95
2022-09-25T22:31:22.304Z,13.63
2022-09-25T22:46:24.757Z,12.93
2022-09-25T23:01:29.539Z,13.67
2022-09-25T23:16:32.019Z,14.19
2022-09-25T23:31:33.983Z,13.59
2022-09-25T23:46:36.906Z,12.53
